Presque Isle, Michigan
Current Conditions -  °F | °C
As of 11:54 AM on Thursday 18 Dec 2014 (Local Time) from KAPN Reporting Station
Overcast Overcast  
Wind Chill: 14°   Ceiling: 1400
Heat Index: 24°   Visibility: 10mi
Dew Point: 18°   Wind: 10mph
Humidity: 77%   Direction: 360°N
Pressure: 30.2"   Gusts: NA
Location:  45.3°N, 83.48°W
Report Text: KAPN 181654Z AUTO 36009KT 10SM OVC014 M04/M08 A3020 RMK AO2 SLP239 T10441078
Loading
Personal Weather Stations






























Interactive Weather Map New forecast layout! Learn more

10-Day Weather Forecast

Advertisements
Track Severe Weather on mobile